KNLC

Details ICAO KNLC (NLC)
Name LEMOORE NAS
Region United States
Timezone America/Los_Angeles (UTC-7.0)
Plans Departing 13
Arriving 12
Stats Elevation 234 ft / 71 m (AMSL)
Location 36.333083° -119.952134°
Runways 2
Magnetic Variation 12.743° E
Sunrise 2018-05-23 12:49:07 UTC / 2018-05-23 05:49:07 Local
Sunset 2018-05-24 03:06:55 UTC / 2018-05-23 20:06:55 Local
Advertisement - Login to hide

Runways

ID Width Length Bearing (true) Bearing (mag) Surface Threshold Offset Overrun Length
14L 200 ft / 61 m 13,521 ft / 4,121 m 156.08° 143.34° Concrete 0 ft / 0 m 1,001 ft / 305 m
14R 200 ft / 61 m 13,519 ft / 4,121 m 156.08° 143.34° Concrete 0 ft / 0 m 1,001 ft / 305 m
32L 200 ft / 61 m 13,519 ft / 4,121 m 336.09° 323.35° Concrete 0 ft / 0 m 1,001 ft / 305 m
32R 200 ft / 61 m 13,521 ft / 4,121 m 336.09° 323.35° Concrete 0 ft / 0 m 1,001 ft / 305 m

Map

Weather


0- 5 10 15 20 25 30 35+ Temperature / ° C

Clouds and Precipitation
Forecast for 2018-05-24 00:00 UTC. Updated 6 hours ago

Ground ~20,000 ft ~40,000 ft Winds

METAR

KNLC 240456Z 33014KT 10SM CLR 22/07 A2991 RMK AO2 SLP127 RH/37 T02220072

TAF

Not found

Frequencies

Ground 121.65 MHz gnd
Approach 118.15 MHz APP
Tower 128.30 MHz Twr
Warning: Do not use this data for real-world aviation or navigation. No guarantee of current accuracy is given.